Time;durP1;ratioP1;P1;durP2;ratioP2;P2;SDS_P1;SDS_P2;PMS_P1;PMS_P2;Temp;Humidity;BMP_temperature;BMP_pressure;BME280_temperature;BME280_humidity;BME280_pressure;Samples;Min_cycle;Max_cycle;Signal;HPM_P1;HPM_P2
2023/03/20 00:01:25;;;;;;;14.05;6.57;;;;;;;9.03;59.59;98709.75;4484825;32;20245;-66
2023/03/20 00:03:53;;;;;;;13.40;7.30;;;;;;;9.06;59.44;98702.47;4486184;32;20084;-66
2023/03/20 00:06:22;;;;;;;16.25;7.37;;;;;;;9.02;59.43;98705.47;4485961;31;20084;-66
2023/03/20 00:08:51;;;;;;;13.82;7.50;;;;;;;9.02;59.92;98701.09;4485788;31;20128;-66
2023/03/20 00:11:32;;;;;;;15.05;7.25;;;;;;;8.94;59.83;98700.91;4485734;32;20096;-66
2023/03/20 00:14:02;;;;;;;17.58;8.40;;;;;;;8.98;59.80;98698.88;4484737;32;20176;-66
2023/03/20 00:16:38;;;;;;;14.60;7.43;;;;;;;8.95;59.93;98702.56;4485880;31;20107;-66
2023/03/20 00:19:19;;;;;;;12.98;6.95;;;;;;;8.95;59.98;98707.78;4485805;32;20250;-66
2023/03/20 00:21:47;;;;;;;14.05;7.45;;;;;;;8.94;60.24;98707.91;4486086;32;20092;-66
2023/03/20 00:24:15;;;;;;;14.70;7.37;;;;;;;8.92;60.44;98708.03;4485887;31;20462;-66
2023/03/20 00:26:44;;;;;;;16.52;6.65;;;;;;;8.92;60.23;98709.81;4485746;31;20119;-66
2023/03/20 00:29:17;;;;;;;16.00;7.70;;;;;;;8.84;60.65;98713.06;4485594;31;20110;-66
2023/03/20 00:31:44;;;;;;;12.68;6.43;;;;;;;8.79;61.21;98710.00;4485916;32;20103;-66
2023/03/20 00:34:14;;;;;;;15.60;6.75;;;;;;;8.76;61.31;98697.22;4485889;31;20485;-66
2023/03/20 00:36:41;;;;;;;15.60;7.40;;;;;;;8.75;61.30;98698.16;4485935;31;20109;-66
2023/03/20 00:39:09;;;;;;;15.05;7.70;;;;;;;8.76;61.31;98708.47;4485683;31;20147;-66
2023/03/20 00:41:37;;;;;;;14.00;7.15;;;;;;;8.75;61.50;98709.44;4485352;31;20173;-66
2023/03/20 00:44:33;;;;;;;14.98;7.32;;;;;;;8.72;61.88;98714.94;4485832;32;20138;-66
2023/03/20 00:47:05;;;;;;;16.15;8.07;;;;;;;8.69;61.68;98705.56;4475429;31;20447;-66
2023/03/20 00:49:34;;;;;;;15.13;7.78;;;;;;;8.74;61.60;98709.59;4484518;32;20092;-66
2023/03/20 00:52:03;;;;;;;16.83;7.43;;;;;;;8.72;62.12;98698.41;4484294;32;20123;-66
2023/03/20 00:54:30;;;;;;;15.95;7.55;;;;;;;8.78;62.61;98697.91;4485556;31;20148;-66
2023/03/20 00:57:01;;;;;;;16.27;8.55;;;;;;;8.70;62.22;98693.31;4471661;32;20183;-66
2023/03/20 00:59:32;;;;;;;16.35;7.60;;;;;;;8.68;62.25;98697.84;4485648;32;20550;-66
2023/03/20 01:02:00;;;;;;;16.30;6.65;;;;;;;8.69;62.14;98700.34;4484695;32;20610;-66
2023/03/20 01:04:35;;;;;;;14.18;6.97;;;;;;;8.67;62.16;98691.78;4485594;31;20450;-66
2023/03/20 01:07:04;;;;;;;13.57;7.05;;;;;;;8.67;62.04;98697.00;4485853;31;20770;-66
2023/03/20 01:09:31;;;;;;;14.02;7.30;;;;;;;8.70;61.95;98695.94;4485497;32;20631;-66
2023/03/20 01:11:59;;;;;;;21.62;7.55;;;;;;;8.66;62.33;98699.75;4485275;32;20128;-66
2023/03/20 01:14:28;;;;;;;15.23;6.78;;;;;;;8.66;62.28;98695.38;4484032;32;20143;-66
2023/03/20 01:16:55;;;;;;;16.87;7.22;;;;;;;8.62;62.61;98698.34;4485409;31;20115;-66
2023/03/20 01:19:22;;;;;;;14.70;7.37;;;;;;;8.61;62.32;98701.91;4485398;32;20145;-66
2023/03/20 01:21:50;;;;;;;13.15;6.55;;;;;;;8.64;62.26;98694.66;4485529;31;20088;-66
2023/03/20 01:24:18;;;;;;;17.65;7.85;;;;;;;8.67;62.20;98694.38;4485272;31;20093;-66
2023/03/20 01:26:45;;;;;;;13.90;6.95;;;;;;;8.67;62.45;98688.34;4484124;32;20092;-66
2023/03/20 01:29:20;;;;;;;18.48;6.72;;;;;;;8.59;62.82;98673.31;4485249;31;20393;-66
2023/03/20 01:31:48;;;;;;;17.25;7.15;;;;;;;8.62;62.55;98683.50;4485865;32;20114;-66
2023/03/20 01:34:17;;;;;;;13.62;6.70;;;;;;;8.71;62.24;98681.94;4485510;31;20588;-66
2023/03/20 01:36:56;;;;;;;17.12;7.10;;;;;;;8.65;62.50;98677.22;4485337;31;20498;-66
2023/03/20 01:39:35;;;;;;;14.82;7.10;;;;;;;8.66;62.56;98677.09;4484039;32;20155;-66
2023/03/20 01:42:04;;;;;;;16.10;7.55;;;;;;;8.70;62.56;98681.09;4484453;32;20096;-66
2023/03/20 01:44:34;;;;;;;13.25;7.00;;;;;;;8.70;62.41;98681.09;4484155;32;20557;-66
2023/03/20 01:47:10;;;;;;;14.55;7.25;;;;;;;8.69;62.39;98679.44;4485520;31;20115;-66
2023/03/20 01:50:16;;;;;;;14.38;7.55;;;;;;;8.67;62.52;98678.72;4484125;32;20160;-66
2023/03/20 01:52:45;;;;;;;17.20;6.97;;;;;;;8.67;62.64;98670.88;4484191;32;20100;-66
2023/03/20 01:55:13;;;;;;;20.15;7.10;;;;;;;8.66;62.72;98681.47;4485599;31;20152;-66
2023/03/20 01:57:40;;;;;;;15.70;7.35;;;;;;;8.67;62.68;98677.91;4485347;31;20115;-66
2023/03/20 02:00:15;;;;;;;12.45;6.82;;;;;;;8.61;63.57;98671.41;4485551;31;20104;-66
2023/03/20 02:02:46;;;;;;;15.10;7.18;;;;;;;8.59;63.53;98670.72;4485146;31;20100;-66
2023/03/20 02:05:17;;;;;;;16.33;7.00;;;;;;;8.55;63.55;98660.66;4483983;32;20123;-66
2023/03/20 02:07:48;;;;;;;13.88;6.78;;;;;;;8.53;63.66;98666.00;4485472;31;20149;-66
2023/03/20 02:10:16;;;;;;;15.32;7.72;;;;;;;8.53;63.84;98669.41;4485211;31;20108;-66
2023/03/20 02:12:44;;;;;;;16.35;7.22;;;;;;;8.50;63.62;98661.03;4481225;32;20108;-66
2023/03/20 02:15:13;;;;;;;12.80;6.15;;;;;;;8.47;63.79;98659.47;4482086;32;20115;-66
2023/03/20 02:17:42;;;;;;;13.73;6.80;;;;;;;8.45;63.94;98666.63;4483991;32;20122;-66
2023/03/20 02:20:29;;;;;;;18.10;7.90;;;;;;;8.40;63.95;98666.13;4485234;31;20502;-66
2023/03/20 02:23:05;;;;;;;13.52;7.15;;;;;;;8.37;64.29;98658.56;4485139;32;20119;-66
2023/03/20 02:25:44;;;;;;;11.63;6.87;;;;;;;8.29;64.58;98660.97;4485119;31;20488;-66
2023/03/20 02:28:12;;;;;;;14.43;7.35;;;;;;;8.21;65.00;98661.59;4485133;31;20088;-66
2023/03/20 02:30:51;;;;;;;13.18;6.97;;;;;;;8.14;65.21;98658.63;4485215;31;20152;-66
2023/03/20 02:33:27;;;;;;;15.95;7.68;;;;;;;8.05;65.94;98653.34;4485123;31;20125;-66
2023/03/20 02:36:21;;;;;;;19.17;7.85;;;;;;;8.01;66.18;98660.59;4483854;32;20131;-66
2023/03/20 02:39:06;;;;;;;13.25;7.50;;;;;;;7.96;66.39;98653.16;4485381;31;20782;-66
2023/03/20 02:41:38;;;;;;;13.98;7.35;;;;;;;7.95;66.49;98638.44;4485145;31;20884;-66
2023/03/20 02:44:42;;;;;;;13.57;6.37;;;;;;;7.89;67.06;98640.69;4483660;32;20096;-66
2023/03/20 02:47:37;;;;;;;16.80;7.37;;;;;;;7.81;67.34;98646.53;4436040;32;20334;-66
2023/03/20 02:50:16;;;;;;;17.10;7.10;;;;;;;7.67;68.06;98637.22;4436010;32;20109;-66
2023/03/20 02:53:18;;;;;;;17.42;7.55;;;;;;;7.62;68.39;98649.78;4435664;32;20102;-66
2023/03/20 02:56:19;;;;;;;15.50;7.22;;;;;;;7.52;69.11;98647.06;4389763;32;20425;-66
2023/03/20 02:58:58;;;;;;;12.82;7.00;;;;;;;7.42;69.45;98652.19;4389967;32;20451;-66
2023/03/20 03:01:35;;;;;;;12.65;6.15;;;;;;;7.32;69.63;98658.22;4389925;32;20113;-66
2023/03/20 03:04:05;;;;;;;16.10;7.10;;;;;;;7.24;69.93;98649.22;4377165;32;20141;-66
2023/03/20 03:06:35;;;;;;;11.82;6.00;;;;;;;7.16;70.20;98662.03;4390244;32;20137;-66
2023/03/20 03:09:18;;;;;;;12.02;7.00;;;;;;;7.07;70.60;98658.34;4377550;32;20447;-66
2023/03/20 03:11:52;;;;;;;16.20;7.00;;;;;;;7.04;70.62;98661.19;4374538;32;20125;-65
2023/03/20 03:14:43;;;;;;;11.82;6.40;;;;;;;7.04;70.55;98665.56;4377627;32;20554;-65
2023/03/20 03:17:12;;;;;;;14.63;6.55;;;;;;;7.12;70.11;98658.00;4377374;32;20128;-66
2023/03/20 03:19:44;;;;;;;16.42;7.47;;;;;;;7.09;70.24;98671.25;4389647;32;20106;-66
2023/03/20 03:22:15;;;;;;;11.82;6.25;;;;;;;6.99;71.31;98670.28;4389534;32;20086;-66
2023/03/20 03:24:49;;;;;;;15.80;6.95;;;;;;;6.86;72.06;98676.44;4427615;32;20485;-66
2023/03/20 03:27:25;;;;;;;15.00;6.78;;;;;;;6.78;72.12;98670.97;4435458;32;20136;-66
2023/03/20 03:29:58;;;;;;;10.70;6.90;;;;;;;6.71;72.59;98667.19;4460601;32;20495;-66
2023/03/20 03:32:40;;;;;;;15.82;8.10;;;;;;;6.79;72.18;98670.03;4482924;32;20114;-66
2023/03/20 03:35:14;;;;;;;11.52;6.87;;;;;;;6.83;72.05;98668.00;4484109;31;20069;-66
2023/03/20 03:38:12;;;;;;;14.13;6.93;;;;;;;6.79;72.35;98664.81;4483046;32;20092;-66
2023/03/20 03:40:45;;;;;;;12.77;6.03;;;;;;;6.72;72.78;98667.06;4484032;31;20170;-66
2023/03/20 03:43:44;;;;;;;10.83;6.10;;;;;;;6.65;73.29;98668.47;4484233;32;20076;-65
2023/03/20 03:46:18;;;;;;;10.88;5.68;;;;;;;6.58;73.65;98672.47;4434887;32;20117;-65
2023/03/20 03:48:50;;;;;;;11.98;6.37;;;;;;;6.51;74.56;98669.50;4422485;32;20128;-66
2023/03/20 03:51:22;;;;;;;14.38;7.07;;;;;;;6.41;75.21;98665.91;4422075;32;20105;-66
2023/03/20 03:53:58;;;;;;;13.50;6.60;;;;;;;6.26;75.81;98674.84;4435114;32;20115;-65
2023/03/20 03:56:27;;;;;;;16.12;6.68;;;;;;;6.25;75.55;98680.97;4422468;32;20101;-66
2023/03/20 03:58:58;;;;;;;13.10;6.85;;;;;;;6.22;75.97;98677.66;4422364;32;20121;-65
2023/03/20 04:01:27;;;;;;;10.88;6.50;;;;;;;6.13;77.06;98678.34;4422120;32;20113;-66
2023/03/20 04:03:59;;;;;;;15.02;6.62;;;;;;;6.11;77.51;98679.38;4434620;32;20168;-65
2023/03/20 04:06:27;;;;;;;12.68;6.50;;;;;;;6.07;77.35;98684.00;4421950;32;20116;-65
2023/03/20 04:08:54;;;;;;;15.70;6.50;;;;;;;6.07;77.22;98676.19;4434708;32;20171;-66
2023/03/20 04:11:24;;;;;;;14.75;7.07;;;;;;;6.09;77.19;98678.69;4434275;32;20502;-66
2023/03/20 04:13:51;;;;;;;9.32;5.65;;;;;;;6.10;77.32;98683.75;4434326;32;20203;-66
2023/03/20 04:16:20;;;;;;;11.02;5.75;;;;;;;5.90;81.10;98687.75;4436216;32;20139;-65
2023/03/20 04:18:49;;;;;;;12.98;6.12;;;;;;;5.74;81.34;98688.03;4436862;32;20109;-66
2023/03/20 04:21:18;;;;;;;17.08;7.12;;;;;;;5.63;82.53;98690.53;4437032;32;20178;-65
2023/03/20 04:23:45;;;;;;;13.95;6.57;;;;;;;5.55;82.90;98687.66;4468875;32;20114;-65
2023/03/20 04:26:13;;;;;;;11.93;6.68;;;;;;;5.54;82.84;98696.38;4485879;31;20130;-66
2023/03/20 04:28:40;;;;;;;12.63;6.50;;;;;;;5.46;83.81;98700.31;4485913;31;20116;-66
2023/03/20 04:31:09;;;;;;;13.52;6.70;;;;;;;5.44;83.88;98697.00;4485893;31;20122;-66
2023/03/20 04:33:37;;;;;;;14.50;6.65;;;;;;;5.45;84.20;98693.50;4486169;31;20143;-65
2023/03/20 04:36:05;;;;;;;10.50;6.05;;;;;;;5.39;85.11;98686.12;4485750;32;20134;-65
2023/03/20 04:38:32;;;;;;;11.55;6.28;;;;;;;5.28;85.69;98684.28;4485877;31;20128;-65
2023/03/20 04:41:00;;;;;;;13.90;6.97;;;;;;;5.23;85.99;98688.13;4486058;31;20164;-65
2023/03/20 04:43:27;;;;;;;13.93;6.53;;;;;;;5.16;86.79;98687.69;4485970;31;20123;-65
2023/03/20 04:45:55;;;;;;;13.45;6.70;;;;;;;5.12;86.85;98675.87;4486145;32;20083;-65
2023/03/20 04:48:22;;;;;;;14.32;7.00;;;;;;;5.42;85.38;98680.72;4486000;31;20112;-65
2023/03/20 04:50:50;;;;;;;15.45;6.82;;;;;;;5.70;83.25;98686.56;4486002;32;20123;-66
2023/03/20 04:53:18;;;;;;;15.93;6.50;;;;;;;5.75;82.33;98684.47;4485722;32;20468;-66
2023/03/20 04:55:47;;;;;;;14.95;6.78;;;;;;;5.59;82.85;98683.91;4485813;31;20410;-65
2023/03/20 04:58:14;;;;;;;12.75;7.05;;;;;;;5.43;83.75;98687.53;4485932;31;20666;-65
2023/03/20 05:00:43;;;;;;;15.43;7.47;;;;;;;5.41;83.92;98689.44;4484736;31;20429;-66
2023/03/20 05:03:10;;;;;;;15.68;7.47;;;;;;;5.40;84.19;98685.16;4480696;31;20100;-66
2023/03/20 05:05:39;;;;;;;13.45;7.70;;;;;;;5.47;84.05;98694.19;4481588;32;20093;-66
2023/03/20 05:08:06;;;;;;;18.08;7.60;;;;;;;5.58;83.83;98698.66;4484537;31;20097;-66
2023/03/20 05:10:36;;;;;;;12.82;7.05;;;;;;;5.79;82.57;98695.50;4478573;32;221782;-66
2023/03/20 05:13:04;;;;;;;18.85;6.95;;;;;;;5.73;82.73;98694.16;4482534;31;20092;-66
2023/03/20 05:15:34;;;;;;;13.20;7.00;;;;;;;5.90;81.97;98707.72;4481285;32;20168;-66
2023/03/20 05:18:02;;;;;;;16.17;6.70;;;;;;;5.98;81.39;98713.22;4482002;31;20100;-66
2023/03/20 05:20:30;;;;;;;13.50;6.47;;;;;;;6.04;80.81;98705.84;4482427;31;20167;-66
2023/03/20 05:22:57;;;;;;;11.95;6.18;;;;;;;6.12;79.95;98717.47;4481549;32;20123;-66
2023/03/20 05:25:25;;;;;;;13.15;6.30;;;;;;;6.19;78.48;98716.06;4481346;32;20583;-66
2023/03/20 05:27:54;;;;;;;16.40;7.15;;;;;;;6.26;78.19;98719.87;4477998;32;20165;-66
2023/03/20 05:30:22;;;;;;;14.38;7.25;;;;;;;6.26;78.13;98725.09;4482952;31;20092;-66
2023/03/20 05:32:51;;;;;;;16.65;8.38;;;;;;;6.31;77.34;98716.94;4484619;31;20126;-66
2023/03/20 05:35:18;;;;;;;13.55;7.87;;;;;;;6.34;76.67;98712.37;4480904;32;20093;-66
2023/03/20 05:37:45;;;;;;;11.60;6.10;;;;;;;6.41;76.14;98714.53;4484018;31;20580;-66
2023/03/20 05:40:14;;;;;;;16.25;6.93;;;;;;;6.47;75.42;98717.50;4484168;32;20092;-66
2023/03/20 05:42:42;;;;;;;12.13;6.22;;;;;;;6.54;75.35;98726.53;4475532;32;20171;-66
2023/03/20 05:45:10;;;;;;;11.93;6.18;;;;;;;6.62;74.56;98719.94;4482851;32;20100;-66
2023/03/20 05:47:38;;;;;;;15.00;5.95;;;;;;;6.62;74.70;98717.34;4482352;31;20567;-66
2023/03/20 05:50:11;;;;;;;13.73;5.25;;;;;;;6.68;73.74;98730.72;4484239;31;20097;-65
2023/03/20 05:52:38;;;;;;;10.75;5.90;;;;;;;6.87;72.39;98737.16;4483558;31;20148;-66
2023/03/20 05:55:06;;;;;;;10.65;5.72;;;;;;;6.97;71.66;98729.50;4483967;31;20100;-66
2023/03/20 05:57:34;;;;;;;12.37;5.35;;;;;;;7.02;72.01;98733.38;4484262;31;20104;-66
2023/03/20 06:00:03;;;;;;;12.93;6.00;;;;;;;7.08;70.82;98734.72;4483922;31;20472;-66
2023/03/20 06:02:32;;;;;;;11.85;6.05;;;;;;;7.26;69.91;98743.72;4482149;32;20422;-66
2023/03/20 06:05:00;;;;;;;9.13;5.45;;;;;;;7.39;69.54;98742.81;4481263;31;20092;-66
2023/03/20 06:07:28;;;;;;;10.57;5.53;;;;;;;7.53;68.33;98741.75;4480926;31;20116;-66
2023/03/20 06:09:55;;;;;;;10.27;5.37;;;;;;;7.67;68.02;98754.53;4479900;32;20123;-66
2023/03/20 06:12:24;;;;;;;15.73;5.57;;;;;;;7.75;67.30;98752.19;4483009;31;20156;-66
2023/03/20 06:14:51;;;;;;;8.88;4.80;;;;;;;7.88;66.37;98757.25;4482876;31;20103;-66
2023/03/20 06:17:19;;;;;;;10.50;5.50;;;;;;;8.09;66.21;98749.50;4483460;31;20103;-66
2023/03/20 06:19:47;;;;;;;18.90;5.75;;;;;;;8.24;65.43;98750.06;4482988;31;20088;-66
2023/03/20 06:22:14;;;;;;;19.35;5.18;;;;;;;8.32;64.76;98742.44;4480908;31;20091;-66
2023/03/20 06:24:42;;;;;;;11.20;5.45;;;;;;;8.42;64.60;98741.72;4475407;31;20605;-65
2023/03/20 06:27:10;;;;;;;12.73;5.57;;;;;;;8.57;63.32;98750.97;4477414;31;20097;-65
2023/03/20 06:29:37;;;;;;;11.40;5.15;;;;;;;8.76;62.32;98747.66;4473902;32;20568;-66
2023/03/20 06:32:09;;;;;;;15.70;5.10;;;;;;;8.91;61.50;98757.81;4478063;31;20085;-65
2023/03/20 06:34:37;;;;;;;15.48;4.80;;;;;;;9.03;60.27;98757.59;4487100;31;20129;-66
2023/03/20 06:37:04;;;;;;;11.23;4.95;;;;;;;9.11;59.42;98750.91;4480079;31;20104;-67
2023/03/20 06:39:32;;;;;;;12.23;5.45;;;;;;;9.22;58.87;98756.09;4477942;31;20093;-67
2023/03/20 06:42:00;;;;;;;20.17;5.43;;;;;;;9.32;58.61;98753.53;4480345;32;20620;-67
2023/03/20 06:44:27;;;;;;;8.68;4.97;;;;;;;9.43;58.66;98756.03;4481759;31;20112;-66
2023/03/20 06:46:56;;;;;;;17.98;5.70;;;;;;;9.55;57.82;98752.41;4482573;31;20441;-66
2023/03/20 06:49:24;;;;;;;10.50;4.80;;;;;;;9.66;56.60;98755.88;4482540;32;20196;-67
2023/03/20 06:51:51;;;;;;;14.30;5.00;;;;;;;9.83;55.96;98754.44;4483543;32;20104;-67
2023/03/20 06:54:21;;;;;;;8.38;4.93;;;;;;;9.95;55.67;98764.66;4483049;31;20711;-67
2023/03/20 06:56:50;;;;;;;9.63;5.15;;;;;;;10.19;55.53;98762.62;4483754;31;20120;-67
2023/03/20 06:59:17;;;;;;;9.45;5.30;;;;;;;10.36;54.79;98769.88;4480192;31;20554;-67
2023/03/20 07:01:45;;;;;;;7.53;5.18;;;;;;;10.41;53.92;98770.28;4482901;31;20100;-67
2023/03/20 07:04:13;;;;;;;8.55;5.25;;;;;;;10.39;53.67;98777.47;4481267;32;20176;-67
2023/03/20 07:06:41;;;;;;;9.18;5.40;;;;;;;10.71;53.31;98762.47;4480230;32;20093;-67
2023/03/20 07:09:09;;;;;;;9.90;4.95;;;;;;;10.96;52.55;98769.78;4482356;31;20417;-67
2023/03/20 07:11:37;;;;;;;9.68;4.75;;;;;;;10.98;52.19;98769.62;4480580;31;20624;-67
2023/03/20 07:14:04;;;;;;;9.77;4.55;;;;;;;11.04;52.27;98776.09;4482655;31;20866;-66
2023/03/20 07:16:34;;;;;;;9.05;5.00;;;;;;;11.21;51.35;98782.44;4482495;31;20167;-66
2023/03/20 07:19:03;;;;;;;9.02;4.32;;;;;;;11.32;50.45;98779.63;4480545;31;20131;-67
2023/03/20 07:21:32;;;;;;;10.20;5.18;;;;;;;11.29;50.32;98783.34;4475938;31;20092;-64
2023/03/20 07:24:00;;;;;;;12.10;4.97;;;;;;;11.51;50.93;98771.72;4478246;31;20111;-67
2023/03/20 07:26:27;;;;;;;11.15;5.10;;;;;;;11.49;49.74;98778.91;4480147;31;20112;-67
2023/03/20 07:28:55;;;;;;;8.07;4.80;;;;;;;11.48;49.75;98779.88;4481193;31;20100;-67
2023/03/20 07:31:25;;;;;;;13.68;4.82;;;;;;;11.50;50.13;98780.53;4469458;31;20108;-67
2023/03/20 07:33:54;;;;;;;11.52;5.32;;;;;;;11.85;51.89;98779.06;4477336;31;20430;-67
2023/03/20 07:36:21;;;;;;;8.07;4.50;;;;;;;12.07;49.57;98779.69;4480496;31;20093;-67
2023/03/20 07:38:48;;;;;;;16.90;5.00;;;;;;;12.11;48.86;98780.19;4479783;31;20109;-67
2023/03/20 07:41:17;;;;;;;7.55;4.70;;;;;;;12.25;49.69;98777.09;4482383;31;20119;-67
2023/03/20 07:43:44;;;;;;;9.48;4.95;;;;;;;12.31;48.65;98778.28;4481827;31;20876;-67
2023/03/20 07:46:14;;;;;;;8.07;4.40;;;;;;;12.38;48.41;98789.84;4473722;31;20458;-66
2023/03/20 07:48:41;;;;;;;10.02;4.60;;;;;;;12.43;49.11;98785.81;4475301;31;20159;-67
2023/03/20 07:51:09;;;;;;;33.65;5.28;;;;;;;12.58;48.42;98791.38;4476124;32;20174;-68
2023/03/20 07:53:36;;;;;;;21.23;5.32;;;;;;;12.67;47.80;98792.28;4474793;31;20142;-67
2023/03/20 07:56:04;;;;;;;13.82;4.85;;;;;;;13.06;48.00;98788.50;4477509;31;20180;-66
2023/03/20 07:58:31;;;;;;;8.77;4.47;;;;;;;13.31;47.10;98790.34;4482137;31;20111;-67
2023/03/20 08:01:02;;;;;;;8.85;4.37;;;;;;;13.55;46.35;98783.63;4482991;31;20095;-65
2023/03/20 08:03:30;;;;;;;10.40;4.53;;;;;;;13.63;45.37;98785.47;4483860;32;20123;-68
2023/03/20 08:05:58;;;;;;;13.10;6.95;;;;;;;13.68;44.52;98791.06;4484963;31;20097;-68
2023/03/20 08:08:25;;;;;;;11.75;6.97;;;;;;;13.63;48.00;98802.06;4473704;31;20492;-67
2023/03/20 08:10:53;;;;;;;12.55;7.37;;;;;;;13.98;48.65;98799.44;4484155;31;20445;-67
2023/03/20 08:13:20;;;;;;;13.38;6.65;;;;;;;13.90;48.13;98802.88;4482750;32;20151;-68
2023/03/20 08:15:48;;;;;;;12.50;6.82;;;;;;;14.04;47.91;98798.00;4485058;31;20161;-67
2023/03/20 08:18:16;;;;;;;16.02;7.25;;;;;;;14.07;46.51;98792.41;4482360;31;20097;-68
2023/03/20 08:20:42;;;;;;;9.77;6.10;;;;;;;14.41;46.64;98791.53;4481226;31;21171;-69
2023/03/20 08:23:10;;;;;;;12.50;7.05;;;;;;;14.25;46.65;98795.78;4479111;31;20100;-67
2023/03/20 08:25:38;;;;;;;12.25;6.53;;;;;;;14.40;46.10;98795.13;4473911;31;20096;-69
2023/03/20 08:28:07;;;;;;;12.80;6.82;;;;;;;14.35;45.82;98807.00;4484064;31;20084;-69
2023/03/20 08:30:34;;;;;;;15.05;7.55;;;;;;;14.16;46.17;98807.25;4481863;31;20159;-68
2023/03/20 08:33:03;;;;;;;12.23;7.40;;;;;;;14.22;47.30;98806.63;4480686;32;20140;-68
2023/03/20 08:35:30;;;;;;;13.45;7.55;;;;;;;14.01;47.85;98799.94;4482930;31;20119;-68
2023/03/20 08:38:00;;;;;;;12.80;7.07;;;;;;;14.11;46.83;98799.00;4483477;31;20119;-68
2023/03/20 08:40:28;;;;;;;11.65;7.12;;;;;;;14.09;47.30;98808.88;4474150;31;20112;-68
2023/03/20 08:42:56;;;;;;;12.35;6.40;;;;;;;14.01;47.04;98807.03;4481642;32;20159;-68
2023/03/20 08:45:25;;;;;;;11.98;6.47;;;;;;;14.20;46.55;98803.31;4480255;31;20116;-69
2023/03/20 08:47:53;;;;;;;10.50;6.12;;;;;;;14.31;47.33;98808.31;4482339;31;20168;-67
2023/03/20 08:50:20;;;;;;;14.30;7.32;;;;;;;14.31;46.96;98804.84;4472668;31;20788;-68
2023/03/20 08:52:50;;;;;;;12.98;7.82;;;;;;;14.44;48.45;98810.47;4478153;31;20109;-67
2023/03/20 08:55:18;;;;;;;10.55;5.28;;;;;;;14.34;49.02;98815.88;4481427;31;20470;-67
2023/03/20 08:57:46;;;;;;;12.60;6.87;;;;;;;14.48;44.90;98817.06;4480143;31;20100;-68
2023/03/20 09:00:14;;;;;;;9.50;5.75;;;;;;;14.53;47.55;98824.50;4481514;31;20534;-68
2023/03/20 09:02:42;;;;;;;10.40;6.62;;;;;;;14.55;48.04;98814.63;4481564;31;20091;-64
2023/03/20 09:05:10;;;;;;;14.00;6.35;;;;;;;14.75;47.30;98819.63;4481774;31;20108;-68
2023/03/20 09:07:37;;;;;;;17.65;7.03;;;;;;;14.83;45.20;98819.66;4483109;31;20122;-68
2023/03/20 09:10:05;;;;;;;15.68;6.20;;;;;;;15.06;45.54;98831.22;4478299;31;20622;-68
2023/03/20 09:12:32;;;;;;;14.38;6.28;;;;;;;14.91;44.30;98824.91;4479911;31;20096;-66
2023/03/20 09:15:00;;;;;;;11.82;6.25;;;;;;;14.90;46.88;98825.94;4480236;31;20621;-67
2023/03/20 09:17:27;;;;;;;10.95;6.45;;;;;;;14.89;45.51;98826.91;4470491;31;20139;-67
2023/03/20 09:19:54;;;;;;;11.77;6.10;;;;;;;15.02;44.99;98835.16;4474582;31;20115;-66
2023/03/20 09:22:22;;;;;;;10.98;6.28;;;;;;;14.89;45.65;98834.81;4481584;31;20080;-67
2023/03/20 09:24:49;;;;;;;11.85;6.90;;;;;;;14.84;44.13;98826.59;4474463;31;20124;-67
2023/03/20 09:27:16;;;;;;;10.20;6.45;;;;;;;14.81;44.82;98827.72;4480576;31;20143;-67
2023/03/20 09:29:43;;;;;;;9.63;5.50;;;;;;;14.73;44.16;98830.31;4480957;31;20104;-67
2023/03/20 09:32:12;;;;;;;14.45;6.53;;;;;;;14.36;45.81;98826.28;4479921;32;20425;-67
2023/03/20 09:34:39;;;;;;;12.60;6.28;;;;;;;14.58;45.33;98819.59;4480937;31;20134;-67
2023/03/20 09:37:07;;;;;;;11.52;5.90;;;;;;;14.66;45.58;98821.44;4474228;31;20119;-67
2023/03/20 09:39:34;;;;;;;10.95;6.28;;;;;;;14.76;45.19;98826.56;4472807;31;20636;-67
2023/03/20 09:42:20;;;;;;;14.73;5.82;;;;;;;15.12;45.20;98826.25;4481591;31;20512;-66
2023/03/20 09:45:32;;;;;;;10.50;5.57;;;;;;;15.18;43.89;98823.78;4474716;31;20158;-66
2023/03/20 09:48:13;;;;;;;14.53;6.47;;;;;;;15.26;43.77;98821.16;4405178;32;20500;-66
2023/03/20 09:51:13;;;;;;;14.18;6.78;;;;;;;15.16;44.94;98822.31;4420021;32;20127;-66
2023/03/20 09:53:43;;;;;;;10.40;6.12;;;;;;;15.40;44.24;98819.66;4412688;32;20180;-67
2023/03/20 09:56:19;;;;;;;9.77;6.55;;;;;;;15.07;44.17;98829.38;4404723;32;20133;-67
2023/03/20 09:58:54;;;;;;;11.95;6.57;;;;;;;14.97;43.80;98831.34;4419236;32;20116;-66
2023/03/20 10:01:44;;;;;;;13.68;6.87;;;;;;;15.04;44.53;98825.25;4400978;32;20125;-67
2023/03/20 10:04:13;;;;;;;13.35;7.12;;;;;;;14.95;44.22;98825.44;4372852;32;20162;-66
2023/03/20 10:06:40;;;;;;;11.68;5.95;;;;;;;15.17;44.07;98827.41;4371508;32;20173;-66
2023/03/20 10:09:23;;;;;;;10.82;6.57;;;;;;;15.16;42.96;98830.22;4372076;32;20134;-66
2023/03/20 10:12:12;;;;;;;16.30;6.22;;;;;;;15.34;43.13;98828.22;4360195;32;20302;-66
2023/03/20 10:15:16;;;;;;;11.45;5.57;;;;;;;15.36;42.23;98831.50;4379633;32;20169;-66
2023/03/20 10:18:06;;;;;;;11.25;5.82;;;;;;;15.20;42.91;98821.81;4366157;32;20926;-67
2023/03/20 10:20:47;;;;;;;12.73;5.85;;;;;;;15.40;42.61;98822.28;4373129;32;20128;-66
2023/03/20 10:23:33;;;;;;;13.80;6.32;;;;;;;15.35;42.48;98818.50;4364073;32;20502;-67
2023/03/20 10:26:11;;;;;;;18.70;6.62;;;;;;;15.70;42.74;98822.56;4448729;32;20094;-66
2023/03/20 10:28:57;;;;;;;10.60;5.75;;;;;;;15.78;42.13;98814.66;4448998;32;20558;-67
2023/03/20 10:31:40;;;;;;;9.90;5.75;;;;;;;15.62;41.77;98819.94;4433452;32;20174;-67
2023/03/20 10:34:16;;;;;;;16.98;6.93;;;;;;;15.46;42.64;98815.53;4444384;32;20181;-67
2023/03/20 10:37:21;;;;;;;10.13;5.60;;;;;;;15.49;41.98;98819.63;4441439;32;20196;-68
2023/03/20 10:39:54;;;;;;;;;;;;;;;15.48;41.97;98810.06;4443796;32;20139;-68
2023/03/20 10:42:29;;;;;;;11.75;6.50;;;;;;;15.82;42.72;98812.50;4474070;32;20003;-68
2023/03/20 10:45:27;;;;;;;13.23;6.62;;;;;;;15.78;41.23;98805.91;4482044;32;20088;-68
2023/03/20 10:47:55;;;;;;;10.70;6.05;;;;;;;15.72;41.82;98810.00;4476747;31;20103;-68
2023/03/20 10:50:37;;;;;;;9.82;6.28;;;;;;;15.68;41.69;98810.50;4479061;31;20385;-68
2023/03/20 10:53:05;;;;;;;11.52;5.90;;;;;;;15.86;42.38;98819.06;4480985;31;20120;-68
2023/03/20 10:55:37;;;;;;;10.98;6.03;;;;;;;15.90;41.99;98811.66;4480743;31;20100;-67
2023/03/20 10:58:36;;;;;;;11.07;6.37;;;;;;;15.86;41.25;98820.91;4481823;31;20085;-67
2023/03/20 11:01:04;;;;;;;14.02;7.05;;;;;;;15.85;42.07;98803.41;4479144;31;20111;-67
2023/03/20 11:03:33;;;;;;;12.02;6.55;;;;;;;16.10;42.24;98799.66;4482303;31;20165;-68
2023/03/20 11:06:05;;;;;;;12.82;6.65;;;;;;;16.01;41.66;98802.53;4471977;32;20100;-68
2023/03/20 11:08:40;;;;;;;10.13;6.18;;;;;;;16.25;42.58;98798.94;4480744;32;20126;-65
2023/03/20 11:11:08;;;;;;;11.32;6.12;;;;;;;16.10;41.70;98802.31;4481508;31;20099;-66
2023/03/20 11:13:38;;;;;;;12.65;5.78;;;;;;;16.38;41.41;98799.22;4482179;31;20494;-66
2023/03/20 11:16:09;;;;;;;12.13;6.70;;;;;;;16.28;41.50;98801.25;4468921;31;20114;-69
2023/03/20 11:18:36;;;;;;;16.73;6.35;;;;;;;16.19;41.31;98789.87;4474007;31;20139;-67
2023/03/20 11:21:04;;;;;;;13.05;6.37;;;;;;;16.16;41.30;98794.72;4478442;31;20096;-67
2023/03/20 11:23:33;;;;;;;11.10;5.93;;;;;;;16.16;40.80;98794.72;4481509;31;20123;-67
2023/03/20 11:26:04;;;;;;;12.65;6.82;;;;;;;16.43;40.93;98786.28;4483141;31;20122;-67
2023/03/20 11:28:37;;;;;;;13.70;7.07;;;;;;;16.30;40.60;98792.13;4476772;31;20168;-68
2023/03/20 11:31:16;;;;;;;12.73;7.47;;;;;;;16.06;41.66;98787.78;4478731;31;20099;-67
2023/03/20 11:33:52;;;;;;;13.35;6.93;;;;;;;16.24;42.28;98786.72;4481000;31;20176;-69
2023/03/20 11:36:39;;;;;;;16.35;7.10;;;;;;;16.08;41.25;98785.81;4483799;32;20513;-67
2023/03/20 11:39:14;;;;;;;11.10;6.28;;;;;;;15.79;41.50;98779.31;4484701;31;20095;-67
2023/03/20 11:41:47;;;;;;;19.05;7.07;;;;;;;15.88;40.85;98787.19;4483505;31;20436;-67
2023/03/20 11:44:29;;;;;;;10.75;5.85;;;;;;;15.79;41.31;98779.31;4469180;32;20113;-66
2023/03/20 11:47:04;;;;;;;12.68;6.50;;;;;;;15.72;41.31;98775.69;4481832;31;20092;-67
2023/03/20 11:49:34;;;;;;;13.35;7.05;;;;;;;15.39;41.65;98780.22;4485542;31;20148;-66
2023/03/20 11:52:12;;;;;;;13.25;6.22;;;;;;;15.63;42.24;98775.88;4481869;31;20171;-66
2023/03/20 11:54:46;;;;;;;16.37;6.65;;;;;;;15.87;41.49;98785.56;4482223;31;20105;-65